sensor_id;sensor_type;location;lat;lon;timestamp;temperature;humidity
1702;DHT22;848;48.354;10.064;2023-07-16T00:01:14;20.60;99.90
1702;DHT22;848;48.354;10.064;2023-07-16T00:03:40;20.70;99.90
1702;DHT22;848;48.354;10.064;2023-07-16T00:06:08;20.70;99.90
1702;DHT22;848;48.354;10.064;2023-07-16T00:08:35;20.70;99.90
1702;DHT22;848;48.354;10.064;2023-07-16T00:11:04;20.70;99.90
1702;DHT22;848;48.354;10.064;2023-07-16T00:13:31;20.70;99.90
1702;DHT22;848;48.354;10.064;2023-07-16T00:15:58;20.70;99.90
1702;DHT22;848;48.354;10.064;2023-07-16T00:18:25;20.70;99.90
1702;DHT22;848;48.354;10.064;2023-07-16T00:20:52;20.70;99.90
1702;DHT22;848;48.354;10.064;2023-07-16T00:23:19;20.70;99.90
1702;DHT22;848;48.354;10.064;2023-07-16T00:25:46;20.70;99.90
1702;DHT22;848;48.354;10.064;2023-07-16T00:28:14;20.80;99.90
1702;DHT22;848;48.354;10.064;2023-07-16T00:30:41;20.80;99.90
1702;DHT22;848;48.354;10.064;2023-07-16T00:33:07;20.80;99.90
1702;DHT22;848;48.354;10.064;2023-07-16T00:35:34;20.80;99.90
1702;DHT22;848;48.354;10.064;2023-07-16T00:38:01;20.90;99.90
1702;DHT22;848;48.354;10.064;2023-07-16T00:40:28;20.80;99.90
1702;DHT22;848;48.354;10.064;2023-07-16T00:42:55;20.80;99.90
1702;DHT22;848;48.354;10.064;2023-07-16T00:45:23;20.80;99.90
1702;DHT22;848;48.354;10.064;2023-07-16T00:47:50;20.80;99.90
1702;DHT22;848;48.354;10.064;2023-07-16T00:50:17;20.80;99.90
1702;DHT22;848;48.354;10.064;2023-07-16T00:52:45;20.80;99.90
1702;DHT22;848;48.354;10.064;2023-07-16T00:55:12;20.70;99.90
1702;DHT22;848;48.354;10.064;2023-07-16T00:57:39;20.70;99.90
1702;DHT22;848;48.354;10.064;2023-07-16T01:00:07;20.70;99.90
1702;DHT22;848;48.354;10.064;2023-07-16T01:02:36;20.70;99.90
1702;DHT22;848;48.354;10.064;2023-07-16T01:05:04;20.70;99.90
1702;DHT22;848;48.354;10.064;2023-07-16T01:07:32;20.70;99.90
1702;DHT22;848;48.354;10.064;2023-07-16T01:09:59;20.80;99.90
1702;DHT22;848;48.354;10.064;2023-07-16T01:12:29;20.70;99.90
1702;DHT22;848;48.354;10.064;2023-07-16T01:14:57;20.70;99.90
1702;DHT22;848;48.354;10.064;2023-07-16T01:17:25;20.70;99.90
1702;DHT22;848;48.354;10.064;2023-07-16T01:19:53;20.70;99.90
1702;DHT22;848;48.354;10.064;2023-07-16T01:22:30;20.60;99.90
1702;DHT22;848;48.354;10.064;2023-07-16T01:25:10;20.60;99.90
1702;DHT22;848;48.354;10.064;2023-07-16T01:27:52;20.60;99.90
1702;DHT22;848;48.354;10.064;2023-07-16T01:30:26;20.50;99.90
1702;DHT22;848;48.354;10.064;2023-07-16T01:32:55;20.40;99.90
1702;DHT22;848;48.354;10.064;2023-07-16T01:35:22;20.30;99.90
1702;DHT22;848;48.354;10.064;2023-07-16T01:37:49;20.30;99.90
1702;DHT22;848;48.354;10.064;2023-07-16T01:40:16;20.30;99.90
1702;DHT22;848;48.354;10.064;2023-07-16T01:42:43;20.30;99.90
1702;DHT22;848;48.354;10.064;2023-07-16T01:45:10;20.40;99.90
1702;DHT22;848;48.354;10.064;2023-07-16T01:47:48;20.40;99.90
1702;DHT22;848;48.354;10.064;2023-07-16T01:50:16;20.30;99.90
1702;DHT22;848;48.354;10.064;2023-07-16T01:52:43;20.30;99.90
1702;DHT22;848;48.354;10.064;2023-07-16T01:55:10;20.30;99.90
1702;DHT22;848;48.354;10.064;2023-07-16T01:57:37;20.30;99.90
1702;DHT22;848;48.354;10.064;2023-07-16T02:00:05;20.30;99.90
1702;DHT22;848;48.354;10.064;2023-07-16T02:02:33;20.20;99.90
1702;DHT22;848;48.354;10.064;2023-07-16T02:05:01;20.30;99.90
1702;DHT22;848;48.354;10.064;2023-07-16T02:07:29;20.30;99.90
1702;DHT22;848;48.354;10.064;2023-07-16T02:09:56;20.30;99.90
1702;DHT22;848;48.354;10.064;2023-07-16T02:12:22;20.20;99.90
1702;DHT22;848;48.354;10.064;2023-07-16T02:14:49;20.20;99.90
1702;DHT22;848;48.354;10.064;2023-07-16T02:17:16;20.10;99.90
1702;DHT22;848;48.354;10.064;2023-07-16T02:19:43;20.10;99.90
1702;DHT22;848;48.354;10.064;2023-07-16T02:22:11;20.00;99.90
1702;DHT22;848;48.354;10.064;2023-07-16T02:24:38;20.00;99.90
1702;DHT22;848;48.354;10.064;2023-07-16T02:27:05;20.00;99.90
1702;DHT22;848;48.354;10.064;2023-07-16T02:29:32;20.00;99.90
1702;DHT22;848;48.354;10.064;2023-07-16T02:31:59;20.20;99.90
1702;DHT22;848;48.354;10.064;2023-07-16T02:34:26;20.00;99.90
1702;DHT22;848;48.354;10.064;2023-07-16T02:36:53;20.00;99.90
1702;DHT22;848;48.354;10.064;2023-07-16T02:39:21;20.00;99.90
1702;DHT22;848;48.354;10.064;2023-07-16T02:41:48;20.00;99.90
1702;DHT22;848;48.354;10.064;2023-07-16T02:44:15;20.00;99.90
1702;DHT22;848;48.354;10.064;2023-07-16T02:46:42;19.90;99.90
1702;DHT22;848;48.354;10.064;2023-07-16T02:49:09;19.80;99.90
1702;DHT22;848;48.354;10.064;2023-07-16T02:51:36;19.80;99.90
1702;DHT22;848;48.354;10.064;2023-07-16T02:54:03;19.80;99.90
1702;DHT22;848;48.354;10.064;2023-07-16T02:56:31;19.80;99.90
1702;DHT22;848;48.354;10.064;2023-07-16T02:58:58;19.80;99.90
1702;DHT22;848;48.354;10.064;2023-07-16T03:01:25;19.80;99.90
1702;DHT22;848;48.354;10.064;2023-07-16T03:03:55;19.70;99.90
1702;DHT22;848;48.354;10.064;2023-07-16T03:06:22;19.80;99.90
1702;DHT22;848;48.354;10.064;2023-07-16T03:08:49;19.70;99.90
1702;DHT22;848;48.354;10.064;2023-07-16T03:11:15;19.60;99.90
1702;DHT22;848;48.354;10.064;2023-07-16T03:13:44;19.60;99.90
1702;DHT22;848;48.354;10.064;2023-07-16T03:16:10;19.60;99.90
1702;DHT22;848;48.354;10.064;2023-07-16T03:18:37;19.60;99.90
1702;DHT22;848;48.354;10.064;2023-07-16T03:21:04;19.60;99.90
1702;DHT22;848;48.354;10.064;2023-07-16T03:23:31;19.60;99.90
1702;DHT22;848;48.354;10.064;2023-07-16T03:25:58;19.50;99.90
1702;DHT22;848;48.354;10.064;2023-07-16T03:28:25;19.50;99.90
1702;DHT22;848;48.354;10.064;2023-07-16T03:30:53;19.50;99.90
1702;DHT22;848;48.354;10.064;2023-07-16T03:33:20;19.50;99.90
1702;DHT22;848;48.354;10.064;2023-07-16T03:35:48;19.40;99.90
1702;DHT22;848;48.354;10.064;2023-07-16T03:38:17;19.30;99.90
1702;DHT22;848;48.354;10.064;2023-07-16T03:40:47;19.30;99.90
1702;DHT22;848;48.354;10.064;2023-07-16T03:43:14;19.30;99.90
1702;DHT22;848;48.354;10.064;2023-07-16T03:45:41;19.30;99.90
1702;DHT22;848;48.354;10.064;2023-07-16T03:48:09;19.20;99.90
1702;DHT22;848;48.354;10.064;2023-07-16T03:50:36;19.20;99.90
1702;DHT22;848;48.354;10.064;2023-07-16T03:53:03;19.20;99.90
1702;DHT22;848;48.354;10.064;2023-07-16T03:55:30;19.20;99.90
1702;DHT22;848;48.354;10.064;2023-07-16T03:57:57;19.20;99.90
1702;DHT22;848;48.354;10.064;2023-07-16T04:00:24;19.20;99.90
1702;DHT22;848;48.354;10.064;2023-07-16T04:02:53;19.20;99.90
1702;DHT22;848;48.354;10.064;2023-07-16T04:05:21;19.20;99.90
1702;DHT22;848;48.354;10.064;2023-07-16T04:07:48;19.20;99.90
1702;DHT22;848;48.354;10.064;2023-07-16T04:10:15;19.20;99.90
1702;DHT22;848;48.354;10.064;2023-07-16T04:12:42;19.20;99.90
1702;DHT22;848;48.354;10.064;2023-07-16T04:15:09;19.30;99.90
1702;DHT22;848;48.354;10.064;2023-07-16T04:17:37;19.30;99.90
1702;DHT22;848;48.354;10.064;2023-07-16T04:20:05;19.30;99.90
1702;DHT22;848;48.354;10.064;2023-07-16T04:22:34;19.20;99.90
1702;DHT22;848;48.354;10.064;2023-07-16T04:25:01;19.10;99.90
1702;DHT22;848;48.354;10.064;2023-07-16T04:27:28;18.90;99.90
1702;DHT22;848;48.354;10.064;2023-07-16T04:29:55;18.90;99.90
1702;DHT22;848;48.354;10.064;2023-07-16T04:32:22;18.90;99.90
1702;DHT22;848;48.354;10.064;2023-07-16T04:34:49;18.90;99.90
1702;DHT22;848;48.354;10.064;2023-07-16T04:37:16;18.80;99.90
1702;DHT22;848;48.354;10.064;2023-07-16T04:39:44;18.80;99.90
1702;DHT22;848;48.354;10.064;2023-07-16T04:42:11;18.90;99.90
1702;DHT22;848;48.354;10.064;2023-07-16T04:44:37;19.00;99.90
1702;DHT22;848;48.354;10.064;2023-07-16T04:47:04;19.20;99.90
1702;DHT22;848;48.354;10.064;2023-07-16T04:49:33;19.20;99.90
1702;DHT22;848;48.354;10.064;2023-07-16T04:52:00;19.30;99.90
1702;DHT22;848;48.354;10.064;2023-07-16T04:54:27;19.40;99.90
1702;DHT22;848;48.354;10.064;2023-07-16T04:56:55;19.60;99.90
1702;DHT22;848;48.354;10.064;2023-07-16T04:59:22;19.70;99.90
1702;DHT22;848;48.354;10.064;2023-07-16T05:01:49;19.80;99.90
1702;DHT22;848;48.354;10.064;2023-07-16T05:04:16;19.80;99.90
1702;DHT22;848;48.354;10.064;2023-07-16T05:06:43;19.90;99.90
1702;DHT22;848;48.354;10.064;2023-07-16T05:09:10;19.90;99.90
1702;DHT22;848;48.354;10.064;2023-07-16T05:11:37;20.00;99.90
1702;DHT22;848;48.354;10.064;2023-07-16T05:14:05;20.00;99.90
1702;DHT22;848;48.354;10.064;2023-07-16T05:16:32;19.90;99.90
1702;DHT22;848;48.354;10.064;2023-07-16T05:18:59;19.90;99.90
1702;DHT22;848;48.354;10.064;2023-07-16T05:21:26;19.80;99.90
1702;DHT22;848;48.354;10.064;2023-07-16T05:23:52;19.80;99.90
1702;DHT22;848;48.354;10.064;2023-07-16T05:26:19;19.80;99.90
1702;DHT22;848;48.354;10.064;2023-07-16T05:28:46;19.70;99.90
1702;DHT22;848;48.354;10.064;2023-07-16T05:31:14;19.70;99.90
1702;DHT22;848;48.354;10.064;2023-07-16T05:33:41;19.70;99.90
1702;DHT22;848;48.354;10.064;2023-07-16T05:36:08;19.70;99.90
1702;DHT22;848;48.354;10.064;2023-07-16T05:38:35;19.70;99.90
1702;DHT22;848;48.354;10.064;2023-07-16T05:41:03;19.70;99.90
1702;DHT22;848;48.354;10.064;2023-07-16T05:43:30;19.80;99.90
1702;DHT22;848;48.354;10.064;2023-07-16T05:45:57;19.90;99.90
1702;DHT22;848;48.354;10.064;2023-07-16T05:48:25;19.80;99.90
1702;DHT22;848;48.354;10.064;2023-07-16T05:50:52;19.80;99.90
1702;DHT22;848;48.354;10.064;2023-07-16T05:53:19;19.80;99.90
1702;DHT22;848;48.354;10.064;2023-07-16T05:55:46;19.70;99.90
1702;DHT22;848;48.354;10.064;2023-07-16T05:58:15;19.80;99.90
1702;DHT22;848;48.354;10.064;2023-07-16T06:00:42;19.90;99.90
1702;DHT22;848;48.354;10.064;2023-07-16T06:03:09;19.90;99.90
1702;DHT22;848;48.354;10.064;2023-07-16T06:05:37;19.80;99.90
1702;DHT22;848;48.354;10.064;2023-07-16T06:08:04;19.60;99.90
1702;DHT22;848;48.354;10.064;2023-07-16T06:10:33;19.60;99.90
1702;DHT22;848;48.354;10.064;2023-07-16T06:13:00;19.60;99.90
1702;DHT22;848;48.354;10.064;2023-07-16T06:15:27;19.60;99.90
1702;DHT22;848;48.354;10.064;2023-07-16T06:17:54;19.70;99.90
1702;DHT22;848;48.354;10.064;2023-07-16T06:20:21;19.80;99.90
1702;DHT22;848;48.354;10.064;2023-07-16T06:22:49;20.00;99.90
1702;DHT22;848;48.354;10.064;2023-07-16T06:25:16;20.00;99.90
1702;DHT22;848;48.354;10.064;2023-07-16T06:27:43;20.00;99.90
1702;DHT22;848;48.354;10.064;2023-07-16T06:30:10;20.00;99.90
1702;DHT22;848;48.354;10.064;2023-07-16T06:32:37;20.00;99.90
1702;DHT22;848;48.354;10.064;2023-07-16T06:35:04;20.00;99.90
1702;DHT22;848;48.354;10.064;2023-07-16T06:37:31;20.10;99.90
1702;DHT22;848;48.354;10.064;2023-07-16T06:39:59;20.10;99.90
1702;DHT22;848;48.354;10.064;2023-07-16T06:42:26;20.10;99.90
1702;DHT22;848;48.354;10.064;2023-07-16T06:44:53;20.00;99.90
1702;DHT22;848;48.354;10.064;2023-07-16T06:47:20;19.80;99.90
1702;DHT22;848;48.354;10.064;2023-07-16T06:49:46;19.60;99.90
1702;DHT22;848;48.354;10.064;2023-07-16T06:52:20;19.50;99.90
1702;DHT22;848;48.354;10.064;2023-07-16T06:54:47;19.50;99.90
1702;DHT22;848;48.354;10.064;2023-07-16T06:57:15;19.50;99.90
1702;DHT22;848;48.354;10.064;2023-07-16T06:59:42;19.50;99.90
1702;DHT22;848;48.354;10.064;2023-07-16T07:02:09;19.60;99.90
1702;DHT22;848;48.354;10.064;2023-07-16T07:04:36;19.60;99.90
1702;DHT22;848;48.354;10.064;2023-07-16T07:07:03;19.40;99.90
1702;DHT22;848;48.354;10.064;2023-07-16T07:09:30;19.40;99.90
1702;DHT22;848;48.354;10.064;2023-07-16T07:11:57;19.50;99.90
1702;DHT22;848;48.354;10.064;2023-07-16T07:14:25;19.80;99.90
1702;DHT22;848;48.354;10.064;2023-07-16T07:16:52;20.20;99.90
1702;DHT22;848;48.354;10.064;2023-07-16T07:19:19;20.30;99.90
1702;DHT22;848;48.354;10.064;2023-07-16T07:21:46;20.10;99.90
1702;DHT22;848;48.354;10.064;2023-07-16T07:24:13;20.10;99.90
1702;DHT22;848;48.354;10.064;2023-07-16T07:26:40;20.10;99.90
1702;DHT22;848;48.354;10.064;2023-07-16T07:29:07;20.10;99.90
1702;DHT22;848;48.354;10.064;2023-07-16T07:31:35;20.20;99.90
1702;DHT22;848;48.354;10.064;2023-07-16T07:34:02;20.20;99.90
1702;DHT22;848;48.354;10.064;2023-07-16T07:36:29;20.40;99.90
1702;DHT22;848;48.354;10.064;2023-07-16T07:38:56;20.20;99.90
1702;DHT22;848;48.354;10.064;2023-07-16T07:41:23;20.10;99.90
1702;DHT22;848;48.354;10.064;2023-07-16T07:43:50;20.10;99.90
1702;DHT22;848;48.354;10.064;2023-07-16T07:46:16;20.00;99.90
1702;DHT22;848;48.354;10.064;2023-07-16T07:48:45;20.00;99.90
1702;DHT22;848;48.354;10.064;2023-07-16T07:51:12;20.10;99.90
1702;DHT22;848;48.354;10.064;2023-07-16T07:53:38;20.20;99.90
1702;DHT22;848;48.354;10.064;2023-07-16T07:56:05;20.20;99.90
1702;DHT22;848;48.354;10.064;2023-07-16T07:58:32;20.60;99.90
1702;DHT22;848;48.354;10.064;2023-07-16T08:01:04;20.80;99.90
1702;DHT22;848;48.354;10.064;2023-07-16T08:03:32;20.80;99.90
1702;DHT22;848;48.354;10.064;2023-07-16T08:06:00;21.00;99.90
1702;DHT22;848;48.354;10.064;2023-07-16T08:08:27;21.10;99.90
1702;DHT22;848;48.354;10.064;2023-07-16T08:10:55;21.40;99.90
1702;DHT22;848;48.354;10.064;2023-07-16T08:13:22;21.80;99.90
1702;DHT22;848;48.354;10.064;2023-07-16T08:15:49;22.30;99.90
1702;DHT22;848;48.354;10.064;2023-07-16T08:18:16;22.10;99.90
1702;DHT22;848;48.354;10.064;2023-07-16T08:20:42;21.50;99.90
1702;DHT22;848;48.354;10.064;2023-07-16T08:23:11;21.40;99.90
1702;DHT22;848;48.354;10.064;2023-07-16T08:25:38;21.50;99.90
1702;DHT22;848;48.354;10.064;2023-07-16T08:28:05;22.10;99.90
1702;DHT22;848;48.354;10.064;2023-07-16T08:30:33;22.90;99.90
1702;DHT22;848;48.354;10.064;2023-07-16T08:32:59;22.60;99.90
1702;DHT22;848;48.354;10.064;2023-07-16T08:35:26;22.90;99.90
1702;DHT22;848;48.354;10.064;2023-07-16T08:37:53;23.70;99.90
1702;DHT22;848;48.354;10.064;2023-07-16T08:40:21;24.80;99.90
1702;DHT22;848;48.354;10.064;2023-07-16T08:42:49;25.30;99.90
1702;DHT22;848;48.354;10.064;2023-07-16T08:45:16;24.70;99.90
1702;DHT22;848;48.354;10.064;2023-07-16T08:47:44;24.40;99.90
1702;DHT22;848;48.354;10.064;2023-07-16T08:50:11;23.70;99.90
1702;DHT22;848;48.354;10.064;2023-07-16T08:52:39;23.90;99.90
1702;DHT22;848;48.354;10.064;2023-07-16T08:55:07;23.40;99.90
1702;DHT22;848;48.354;10.064;2023-07-16T08:57:36;23.40;99.90
1702;DHT22;848;48.354;10.064;2023-07-16T09:00:04;23.20;99.90
1702;DHT22;848;48.354;10.064;2023-07-16T09:02:32;22.20;99.90
1702;DHT22;848;48.354;10.064;2023-07-16T09:04:59;22.60;99.90
1702;DHT22;848;48.354;10.064;2023-07-16T09:07:26;22.80;99.90
1702;DHT22;848;48.354;10.064;2023-07-16T09:09:56;22.90;99.90
1702;DHT22;848;48.354;10.064;2023-07-16T09:12:26;22.90;99.90
1702;DHT22;848;48.354;10.064;2023-07-16T09:14:56;22.70;99.90
1702;DHT22;848;48.354;10.064;2023-07-16T09:17:24;22.80;99.90
1702;DHT22;848;48.354;10.064;2023-07-16T09:19:51;23.70;99.90
1702;DHT22;848;48.354;10.064;2023-07-16T09:22:19;23.30;99.90
1702;DHT22;848;48.354;10.064;2023-07-16T09:24:46;23.50;99.90
1702;DHT22;848;48.354;10.064;2023-07-16T09:27:13;24.20;99.90
1702;DHT22;848;48.354;10.064;2023-07-16T09:29:41;24.30;99.90
1702;DHT22;848;48.354;10.064;2023-07-16T09:32:09;23.90;99.90
1702;DHT22;848;48.354;10.064;2023-07-16T09:34:36;23.60;99.90
1702;DHT22;848;48.354;10.064;2023-07-16T09:37:05;23.20;99.90
1702;DHT22;848;48.354;10.064;2023-07-16T09:39:32;23.20;99.90
1702;DHT22;848;48.354;10.064;2023-07-16T09:42:02;23.00;99.90
1702;DHT22;848;48.354;10.064;2023-07-16T09:44:29;23.10;99.90
1702;DHT22;848;48.354;10.064;2023-07-16T09:46:56;23.20;99.90
1702;DHT22;848;48.354;10.064;2023-07-16T09:49:26;23.30;99.90
1702;DHT22;848;48.354;10.064;2023-07-16T09:51:56;23.40;99.90
1702;DHT22;848;48.354;10.064;2023-07-16T09:54:25;24.00;99.90
1702;DHT22;848;48.354;10.064;2023-07-16T09:56:54;24.00;99.90
1702;DHT22;848;48.354;10.064;2023-07-16T09:59:26;23.60;99.90
1702;DHT22;848;48.354;10.064;2023-07-16T10:01:55;23.60;99.90
1702;DHT22;848;48.354;10.064;2023-07-16T10:04:21;23.60;99.90
1702;DHT22;848;48.354;10.064;2023-07-16T10:06:51;23.40;99.90
1702;DHT22;848;48.354;10.064;2023-07-16T10:09:35;22.90;99.90
1702;DHT22;848;48.354;10.064;2023-07-16T10:12:12;23.10;99.90
1702;DHT22;848;48.354;10.064;2023-07-16T10:14:40;23.40;99.90
1702;DHT22;848;48.354;10.064;2023-07-16T10:17:07;23.60;99.90
1702;DHT22;848;48.354;10.064;2023-07-16T10:19:49;23.40;99.90
1702;DHT22;848;48.354;10.064;2023-07-16T10:22:17;23.30;99.90
1702;DHT22;848;48.354;10.064;2023-07-16T10:24:50;23.60;99.90
1702;DHT22;848;48.354;10.064;2023-07-16T10:27:26;24.00;99.90
1702;DHT22;848;48.354;10.064;2023-07-16T10:29:54;24.30;99.90
1702;DHT22;848;48.354;10.064;2023-07-16T10:32:21;24.50;99.90
1702;DHT22;848;48.354;10.064;2023-07-16T10:34:48;24.70;99.90
1702;DHT22;848;48.354;10.064;2023-07-16T10:37:17;24.40;99.90
1702;DHT22;848;48.354;10.064;2023-07-16T10:39:47;24.40;99.90
1702;DHT22;848;48.354;10.064;2023-07-16T10:42:16;24.70;99.90
1702;DHT22;848;48.354;10.064;2023-07-16T10:44:44;24.60;99.90
1702;DHT22;848;48.354;10.064;2023-07-16T10:47:19;24.60;99.90
1702;DHT22;848;48.354;10.064;2023-07-16T10:49:50;24.10;99.90
1702;DHT22;848;48.354;10.064;2023-07-16T10:52:20;24.20;99.90
1702;DHT22;848;48.354;10.064;2023-07-16T10:54:47;24.00;99.90
1702;DHT22;848;48.354;10.064;2023-07-16T10:57:15;24.30;99.90
1702;DHT22;848;48.354;10.064;2023-07-16T10:59:43;24.50;99.90
1702;DHT22;848;48.354;10.064;2023-07-16T11:02:12;24.80;99.90
1702;DHT22;848;48.354;10.064;2023-07-16T11:04:39;24.90;99.90
1702;DHT22;848;48.354;10.064;2023-07-16T11:07:08;25.20;99.90
1702;DHT22;848;48.354;10.064;2023-07-16T11:09:42;25.50;99.90
1702;DHT22;848;48.354;10.064;2023-07-16T11:12:10;25.30;99.90
1702;DHT22;848;48.354;10.064;2023-07-16T11:14:38;25.30;99.90
1702;DHT22;848;48.354;10.064;2023-07-16T11:17:06;25.10;99.90
1702;DHT22;848;48.354;10.064;2023-07-16T11:19:34;25.30;99.90
1702;DHT22;848;48.354;10.064;2023-07-16T11:22:03;25.20;99.90
1702;DHT22;848;48.354;10.064;2023-07-16T11:24:38;24.90;99.90
1702;DHT22;848;48.354;10.064;2023-07-16T11:27:12;25.20;99.90
1702;DHT22;848;48.354;10.064;2023-07-16T11:29:40;25.50;99.90
1702;DHT22;848;48.354;10.064;2023-07-16T11:32:08;25.70;99.90
1702;DHT22;848;48.354;10.064;2023-07-16T11:34:35;25.80;99.90
1702;DHT22;848;48.354;10.064;2023-07-16T11:37:08;25.60;99.90
1702;DHT22;848;48.354;10.064;2023-07-16T11:39:36;25.50;99.90
1702;DHT22;848;48.354;10.064;2023-07-16T11:42:03;25.60;99.90
1702;DHT22;848;48.354;10.064;2023-07-16T11:44:36;25.30;99.90
1702;DHT22;848;48.354;10.064;2023-07-16T11:47:04;25.30;99.90
1702;DHT22;848;48.354;10.064;2023-07-16T11:49:31;25.00;99.90
1702;DHT22;848;48.354;10.064;2023-07-16T11:51:58;24.80;99.90
1702;DHT22;848;48.354;10.064;2023-07-16T11:54:25;24.80;99.90
1702;DHT22;848;48.354;10.064;2023-07-16T11:56:52;24.90;99.90
1702;DHT22;848;48.354;10.064;2023-07-16T11:59:19;24.90;99.90
1702;DHT22;848;48.354;10.064;2023-07-16T12:01:48;24.90;99.90
1702;DHT22;848;48.354;10.064;2023-07-16T12:04:16;24.80;99.90
1702;DHT22;848;48.354;10.064;2023-07-16T12:06:43;25.10;99.90
1702;DHT22;848;48.354;10.064;2023-07-16T12:09:10;25.20;99.90
1702;DHT22;848;48.354;10.064;2023-07-16T12:11:37;24.90;99.90
1702;DHT22;848;48.354;10.064;2023-07-16T12:14:05;24.50;99.90
1702;DHT22;848;48.354;10.064;2023-07-16T12:16:32;24.40;99.90
1702;DHT22;848;48.354;10.064;2023-07-16T12:19:00;24.60;99.90
1702;DHT22;848;48.354;10.064;2023-07-16T12:21:28;24.60;99.90
1702;DHT22;848;48.354;10.064;2023-07-16T12:23:55;24.60;99.90
1702;DHT22;848;48.354;10.064;2023-07-16T12:26:21;24.60;99.90
1702;DHT22;848;48.354;10.064;2023-07-16T12:28:48;24.50;99.90
1702;DHT22;848;48.354;10.064;2023-07-16T12:31:15;24.40;99.90
1702;DHT22;848;48.354;10.064;2023-07-16T12:33:43;24.50;99.90
1702;DHT22;848;48.354;10.064;2023-07-16T12:36:16;24.50;99.90
1702;DHT22;848;48.354;10.064;2023-07-16T12:38:46;24.40;99.90
1702;DHT22;848;48.354;10.064;2023-07-16T12:41:13;24.40;99.90
1702;DHT22;848;48.354;10.064;2023-07-16T12:43:41;24.50;99.90
1702;DHT22;848;48.354;10.064;2023-07-16T12:46:08;24.60;99.90
1702;DHT22;848;48.354;10.064;2023-07-16T12:48:35;24.90;99.90
1702;DHT22;848;48.354;10.064;2023-07-16T12:51:02;24.90;99.90
1702;DHT22;848;48.354;10.064;2023-07-16T12:53:31;25.10;99.90
1702;DHT22;848;48.354;10.064;2023-07-16T12:55:58;24.90;99.90
1702;DHT22;848;48.354;10.064;2023-07-16T12:58:24;24.80;99.90
1702;DHT22;848;48.354;10.064;2023-07-16T13:00:51;24.90;99.90
1702;DHT22;848;48.354;10.064;2023-07-16T13:03:18;24.80;99.90
1702;DHT22;848;48.354;10.064;2023-07-16T13:05:47;25.00;99.90
1702;DHT22;848;48.354;10.064;2023-07-16T13:08:14;25.10;99.90
1702;DHT22;848;48.354;10.064;2023-07-16T13:10:42;25.30;99.90
1702;DHT22;848;48.354;10.064;2023-07-16T13:13:09;25.30;99.90
1702;DHT22;848;48.354;10.064;2023-07-16T13:15:36;25.40;99.90
1702;DHT22;848;48.354;10.064;2023-07-16T13:18:03;25.50;99.90
1702;DHT22;848;48.354;10.064;2023-07-16T13:20:30;25.60;99.90
1702;DHT22;848;48.354;10.064;2023-07-16T13:22:57;25.70;99.90
1702;DHT22;848;48.354;10.064;2023-07-16T13:25:24;25.90;99.90
1702;DHT22;848;48.354;10.064;2023-07-16T13:27:52;26.00;99.90
1702;DHT22;848;48.354;10.064;2023-07-16T13:30:19;25.90;99.90
1702;DHT22;848;48.354;10.064;2023-07-16T13:32:46;25.60;99.90
1702;DHT22;848;48.354;10.064;2023-07-16T13:35:14;25.60;99.90
1702;DHT22;848;48.354;10.064;2023-07-16T13:37:42;25.70;99.90
1702;DHT22;848;48.354;10.064;2023-07-16T13:40:10;25.50;99.90
1702;DHT22;848;48.354;10.064;2023-07-16T13:42:37;25.60;99.90
1702;DHT22;848;48.354;10.064;2023-07-16T13:45:06;25.70;99.90
1702;DHT22;848;48.354;10.064;2023-07-16T13:47:33;25.90;99.90
1702;DHT22;848;48.354;10.064;2023-07-16T13:50:00;26.00;99.90
1702;DHT22;848;48.354;10.064;2023-07-16T13:52:27;26.00;99.90
1702;DHT22;848;48.354;10.064;2023-07-16T13:54:54;25.80;99.90
1702;DHT22;848;48.354;10.064;2023-07-16T13:57:21;25.80;99.90
1702;DHT22;848;48.354;10.064;2023-07-16T13:59:48;25.70;99.90
1702;DHT22;848;48.354;10.064;2023-07-16T14:02:16;25.70;99.90
1702;DHT22;848;48.354;10.064;2023-07-16T14:04:44;25.70;99.90
1702;DHT22;848;48.354;10.064;2023-07-16T14:07:11;25.90;99.90
1702;DHT22;848;48.354;10.064;2023-07-16T14:09:38;25.80;99.90
1702;DHT22;848;48.354;10.064;2023-07-16T14:12:05;25.40;99.90
1702;DHT22;848;48.354;10.064;2023-07-16T14:14:32;25.00;99.90
1702;DHT22;848;48.354;10.064;2023-07-16T14:16:59;24.70;99.90
1702;DHT22;848;48.354;10.064;2023-07-16T14:19:28;24.70;99.90
1702;DHT22;848;48.354;10.064;2023-07-16T14:21:55;24.70;99.90
1702;DHT22;848;48.354;10.064;2023-07-16T14:24:22;24.90;99.90
1702;DHT22;848;48.354;10.064;2023-07-16T14:26:49;25.00;99.90
1702;DHT22;848;48.354;10.064;2023-07-16T14:29:16;25.40;99.90
1702;DHT22;848;48.354;10.064;2023-07-16T14:31:43;25.70;99.90
1702;DHT22;848;48.354;10.064;2023-07-16T14:34:10;25.70;99.90
1702;DHT22;848;48.354;10.064;2023-07-16T14:36:40;25.60;99.90
1702;DHT22;848;48.354;10.064;2023-07-16T14:39:08;25.50;99.90
1702;DHT22;848;48.354;10.064;2023-07-16T14:41:35;25.70;99.90
1702;DHT22;848;48.354;10.064;2023-07-16T14:44:01;25.80;99.90
1702;DHT22;848;48.354;10.064;2023-07-16T14:46:28;25.80;99.90
1702;DHT22;848;48.354;10.064;2023-07-16T14:48:55;25.70;99.90
1702;DHT22;848;48.354;10.064;2023-07-16T14:51:23;25.60;99.90
1702;DHT22;848;48.354;10.064;2023-07-16T14:53:52;25.60;99.90
1702;DHT22;848;48.354;10.064;2023-07-16T14:56:19;25.60;99.90
1702;DHT22;848;48.354;10.064;2023-07-16T14:58:45;25.40;99.90
1702;DHT22;848;48.354;10.064;2023-07-16T15:01:12;25.30;99.90
1702;DHT22;848;48.354;10.064;2023-07-16T15:03:39;25.30;99.90
1702;DHT22;848;48.354;10.064;2023-07-16T15:06:07;25.30;99.90
1702;DHT22;848;48.354;10.064;2023-07-16T15:08:34;25.30;99.90
1702;DHT22;848;48.354;10.064;2023-07-16T15:11:02;25.30;99.90
1702;DHT22;848;48.354;10.064;2023-07-16T15:13:29;25.20;99.90
1702;DHT22;848;48.354;10.064;2023-07-16T15:15:56;25.30;99.90
1702;DHT22;848;48.354;10.064;2023-07-16T15:18:23;25.50;99.90
1702;DHT22;848;48.354;10.064;2023-07-16T15:20:56;25.60;99.90
1702;DHT22;848;48.354;10.064;2023-07-16T15:23:23;25.70;99.90
1702;DHT22;848;48.354;10.064;2023-07-16T15:25:50;25.70;99.90
1702;DHT22;848;48.354;10.064;2023-07-16T15:28:19;25.70;99.90
1702;DHT22;848;48.354;10.064;2023-07-16T15:30:46;25.50;99.90
1702;DHT22;848;48.354;10.064;2023-07-16T15:33:13;25.30;99.90
1702;DHT22;848;48.354;10.064;2023-07-16T15:35:39;25.10;99.90
1702;DHT22;848;48.354;10.064;2023-07-16T15:38:06;24.90;99.90
1702;DHT22;848;48.354;10.064;2023-07-16T15:40:34;24.90;99.90
1702;DHT22;848;48.354;10.064;2023-07-16T15:43:01;25.10;99.90
1702;DHT22;848;48.354;10.064;2023-07-16T15:45:29;25.20;99.90
1702;DHT22;848;48.354;10.064;2023-07-16T15:47:56;25.10;99.90
1702;DHT22;848;48.354;10.064;2023-07-16T15:50:24;25.20;99.90
1702;DHT22;848;48.354;10.064;2023-07-16T15:52:52;25.10;99.90
1702;DHT22;848;48.354;10.064;2023-07-16T15:55:19;25.10;99.90
1702;DHT22;848;48.354;10.064;2023-07-16T15:57:47;25.10;99.90
1702;DHT22;848;48.354;10.064;2023-07-16T16:00:15;25.20;99.90
1702;DHT22;848;48.354;10.064;2023-07-16T16:02:44;25.20;99.90
1702;DHT22;848;48.354;10.064;2023-07-16T16:05:11;25.20;99.90